Аэропорт: Емельяново. Красноярск

ICAO: UNKL

METAR:
2024-04-22 23:00:00
UNKL 222300Z 27004MPS 6000 -SHSN SCT041CB M02/M03 Q1011 R29/590145 TEMPO 1000 SHSN RMK QFE732
TAF:
2024-04-22 19:53:00
TAF UNKL 221953Z 2221/2321 27005G12MPS 9999 BKN016CB 
  TEMPO 2221/2303 1000 SHSN BKN004 BKN016CB 
  BECMG 2303/2306 32005G12MPS 
  TEMPO 2306/2312 1400 SHSN 
  BECMG 2315/2318 27003G08MPS